Terminal Aerodrome Forecast
Issued by NWS State College, PA

Home | Current Version | Previous Version | Text Only | Print | Product List | Glossary On
Versions: 1 2 3 4 5 6 7 8 9 10 11 12 13 14 15 16 17 18 19 20 21 22 23 24 25 26 27 28
762
FTUS41 KCTP 221739
TAFMDT
TAF
KMDT 221739Z 2218/2318 29016G26KT P6SM SCT050 BKN090
     FM222300 30012G17KT P6SM FEW100
     FM230100 30010KT P6SM SKC
     FM230900 33005KT P6SM SKC=

USA.gov is the U.S. government's official web portal to all federal, state and local government web resources and services.